sensor_id;sensor_type;location;lat;lon;timestamp;pressure;altitude;pressure_sealevel;temperature;humidity
45888;BME280;31595;51.418;7.572;2023-03-29T00:02:29;100473.69;;;7.06;65.86
45888;BME280;31595;51.418;7.572;2023-03-29T00:04:57;100476.22;;;7.02;65.52
45888;BME280;31595;51.418;7.572;2023-03-29T00:07:26;100464.34;;;6.97;65.38
45888;BME280;31595;51.418;7.572;2023-03-29T00:09:55;100456.03;;;6.97;65.48
45888;BME280;31595;51.418;7.572;2023-03-29T00:12:24;100449.94;;;7.00;64.85
45888;BME280;31595;51.418;7.572;2023-03-29T00:14:54;100446.63;;;6.98;64.85
45888;BME280;31595;51.418;7.572;2023-03-29T00:17:22;100442.97;;;7.02;64.74
45888;BME280;31595;51.418;7.572;2023-03-29T00:19:49;100445.16;;;7.05;65.06
45888;BME280;31595;51.418;7.572;2023-03-29T00:22:16;100429.31;;;7.11;64.52
45888;BME280;31595;51.418;7.572;2023-03-29T00:24:43;100425.66;;;7.16;64.38
45888;BME280;31595;51.418;7.572;2023-03-29T00:27:12;100430.72;;;7.08;64.63
45888;BME280;31595;51.418;7.572;2023-03-29T00:29:41;100427.09;;;7.13;65.12
45888;BME280;31595;51.418;7.572;2023-03-29T00:32:08;100424.31;;;7.13;64.22
45888;BME280;31595;51.418;7.572;2023-03-29T00:34:35;100418.06;;;7.02;64.07
45888;BME280;31595;51.418;7.572;2023-03-29T00:37:03;100426.63;;;7.01;63.94
45888;BME280;31595;51.418;7.572;2023-03-29T00:39:34;100423.25;;;7.09;64.58
45888;BME280;31595;51.418;7.572;2023-03-29T00:42:02;100426.59;;;7.06;63.92
45888;BME280;31595;51.418;7.572;2023-03-29T00:45:00;100417.06;;;7.17;63.99
45888;BME280;31595;51.418;7.572;2023-03-29T00:47:30;100424.84;;;7.15;63.54
45888;BME280;31595;51.418;7.572;2023-03-29T00:50:02;100417.34;;;7.16;63.47
45888;BME280;31595;51.418;7.572;2023-03-29T00:52:31;100409.22;;;7.24;63.99
45888;BME280;31595;51.418;7.572;2023-03-29T00:55:03;100409.81;;;7.21;63.87
45888;BME280;31595;51.418;7.572;2023-03-29T00:57:33;100404.19;;;7.31;63.34
45888;BME280;31595;51.418;7.572;2023-03-29T01:00:03;100400.59;;;7.31;62.94
45888;BME280;31595;51.418;7.572;2023-03-29T01:02:35;100402.41;;;7.41;62.94
45888;BME280;31595;51.418;7.572;2023-03-29T01:05:07;100393.50;;;7.44;63.89
45888;BME280;31595;51.418;7.572;2023-03-29T01:07:41;100399.06;;;7.44;62.91
45888;BME280;31595;51.418;7.572;2023-03-29T01:10:19;100387.31;;;7.52;63.03
45888;BME280;31595;51.418;7.572;2023-03-29T01:12:53;100385.78;;;7.41;63.75
45888;BME280;31595;51.418;7.572;2023-03-29T01:15:24;100389.38;;;7.41;62.93
45888;BME280;31595;51.418;7.572;2023-03-29T01:17:53;100384.06;;;7.45;62.71
45888;BME280;31595;51.418;7.572;2023-03-29T01:20:29;100380.63;;;7.53;62.78
45888;BME280;31595;51.418;7.572;2023-03-29T01:23:10;100377.81;;;7.58;62.71
45888;BME280;31595;51.418;7.572;2023-03-29T01:25:47;100368.44;;;7.54;62.88
45888;BME280;31595;51.418;7.572;2023-03-29T01:28:22;100380.59;;;7.58;61.82
45888;BME280;31595;51.418;7.572;2023-03-29T01:30:56;100375.78;;;7.64;62.27
45888;BME280;31595;51.418;7.572;2023-03-29T01:33:29;100369.34;;;7.68;61.71
45888;BME280;31595;51.418;7.572;2023-03-29T01:36:01;100360.06;;;7.78;61.61
45888;BME280;31595;51.418;7.572;2023-03-29T01:38:35;100360.59;;;7.80;61.78
45888;BME280;31595;51.418;7.572;2023-03-29T01:41:06;100359.25;;;7.78;61.42
45888;BME280;31595;51.418;7.572;2023-03-29T01:43:40;100360.84;;;7.84;60.59
45888;BME280;31595;51.418;7.572;2023-03-29T01:46:14;100350.31;;;7.81;61.86
45888;BME280;31595;51.418;7.572;2023-03-29T01:48:53;100344.34;;;7.73;61.39
45888;BME280;31595;51.418;7.572;2023-03-29T01:51:25;100344.94;;;7.89;59.98
45888;BME280;31595;51.418;7.572;2023-03-29T01:53:59;100346.34;;;7.87;60.30
45888;BME280;31595;51.418;7.572;2023-03-29T01:56:33;100338.56;;;7.89;60.90
45888;BME280;31595;51.418;7.572;2023-03-29T01:59:08;100333.09;;;7.84;60.63
45888;BME280;31595;51.418;7.572;2023-03-29T02:01:41;100326.28;;;7.95;59.91
45888;BME280;31595;51.418;7.572;2023-03-29T02:04:17;100323.50;;;7.95;60.36
45888;BME280;31595;51.418;7.572;2023-03-29T02:06:45;100312.13;;;7.97;59.94
45888;BME280;31595;51.418;7.572;2023-03-29T02:09:15;100306.78;;;8.00;61.04
45888;BME280;31595;51.418;7.572;2023-03-29T02:11:46;100307.38;;;7.97;60.18
45888;BME280;31595;51.418;7.572;2023-03-29T02:14:15;100305.34;;;8.03;60.38
45888;BME280;31595;51.418;7.572;2023-03-29T02:16:42;100303.69;;;8.02;59.99
45888;BME280;31595;51.418;7.572;2023-03-29T02:19:12;100290.75;;;7.97;59.97
45888;BME280;31595;51.418;7.572;2023-03-29T02:21:44;100294.72;;;7.91;60.04
45888;BME280;31595;51.418;7.572;2023-03-29T02:24:17;100292.75;;;7.91;60.37
45888;BME280;31595;51.418;7.572;2023-03-29T02:26:46;100286.78;;;7.84;59.89
45888;BME280;31595;51.418;7.572;2023-03-29T02:29:15;100297.06;;;7.84;60.38
45888;BME280;31595;51.418;7.572;2023-03-29T02:31:48;100298.69;;;7.85;60.01
45888;BME280;31595;51.418;7.572;2023-03-29T02:34:20;100303.31;;;7.89;59.66
45888;BME280;31595;51.418;7.572;2023-03-29T02:36:51;100301.84;;;7.97;60.41
45888;BME280;31595;51.418;7.572;2023-03-29T02:39:20;100303.13;;;7.86;59.73
45888;BME280;31595;51.418;7.572;2023-03-29T02:41:50;100299.69;;;7.94;60.37
45888;BME280;31595;51.418;7.572;2023-03-29T02:44:22;100300.03;;;8.06;58.78
45888;BME280;31595;51.418;7.572;2023-03-29T02:46:54;100297.34;;;8.01;58.89
45888;BME280;31595;51.418;7.572;2023-03-29T02:49:22;100294.50;;;8.06;58.47
45888;BME280;31595;51.418;7.572;2023-03-29T02:51:53;100278.53;;;7.98;59.74
45888;BME280;31595;51.418;7.572;2023-03-29T02:54:23;100282.94;;;7.99;59.76
45888;BME280;31595;51.418;7.572;2023-03-29T02:56:56;100268.50;;;8.02;59.05
45888;BME280;31595;51.418;7.572;2023-03-29T02:59:25;100261.94;;;8.12;58.25
45888;BME280;31595;51.418;7.572;2023-03-29T03:01:54;100251.34;;;8.14;58.73
45888;BME280;31595;51.418;7.572;2023-03-29T03:04:21;100255.28;;;8.13;57.98
45888;BME280;31595;51.418;7.572;2023-03-29T03:06:50;100250.75;;;8.17;58.24
45888;BME280;31595;51.418;7.572;2023-03-29T03:09:17;100248.81;;;8.18;58.33
45888;BME280;31595;51.418;7.572;2023-03-29T03:11:45;100259.59;;;8.19;58.38
45888;BME280;31595;51.418;7.572;2023-03-29T03:14:12;100250.97;;;8.21;59.36
45888;BME280;31595;51.418;7.572;2023-03-29T03:16:41;100248.06;;;8.12;59.29
45888;BME280;31595;51.418;7.572;2023-03-29T03:19:08;100240.19;;;8.19;58.89
45888;BME280;31595;51.418;7.572;2023-03-29T03:21:36;100243.94;;;8.09;58.18
45888;BME280;31595;51.418;7.572;2023-03-29T03:24:04;100239.16;;;8.15;59.50
45888;BME280;31595;51.418;7.572;2023-03-29T03:26:32;100247.00;;;8.08;59.55
45888;BME280;31595;51.418;7.572;2023-03-29T03:29:01;100240.03;;;8.10;58.33
45888;BME280;31595;51.418;7.572;2023-03-29T03:31:28;100240.03;;;8.10;59.26
45888;BME280;31595;51.418;7.572;2023-03-29T03:33:59;100241.78;;;8.06;58.52
45888;BME280;31595;51.418;7.572;2023-03-29T03:36:27;100240.03;;;8.10;58.67
45888;BME280;31595;51.418;7.572;2023-03-29T03:38:56;100236.16;;;8.11;58.93
45888;BME280;31595;51.418;7.572;2023-03-29T03:41:23;100240.56;;;8.12;59.32
45888;BME280;31595;51.418;7.572;2023-03-29T03:43:51;100242.22;;;8.13;59.20
45888;BME280;31595;51.418;7.572;2023-03-29T03:46:21;100239.53;;;8.08;59.74
45888;BME280;31595;51.418;7.572;2023-03-29T03:48:48;100245.09;;;8.08;59.31
45888;BME280;31595;51.418;7.572;2023-03-29T03:51:17;100245.50;;;8.16;58.79
45888;BME280;31595;51.418;7.572;2023-03-29T03:53:44;100243.78;;;8.20;59.65
45888;BME280;31595;51.418;7.572;2023-03-29T03:56:15;100238.81;;;8.17;59.19
45888;BME280;31595;51.418;7.572;2023-03-29T03:58:43;100247.66;;;8.19;58.75
45888;BME280;31595;51.418;7.572;2023-03-29T04:01:10;100238.13;;;8.25;58.77
45888;BME280;31595;51.418;7.572;2023-03-29T04:03:37;100245.94;;;8.23;59.37
45888;BME280;31595;51.418;7.572;2023-03-29T04:06:05;100247.47;;;8.29;58.88
45888;BME280;31595;51.418;7.572;2023-03-29T04:08:34;100247.19;;;8.30;58.94
45888;BME280;31595;51.418;7.572;2023-03-29T04:11:01;100236.31;;;8.34;58.52
45888;BME280;31595;51.418;7.572;2023-03-29T04:13:29;100253.25;;;8.32;58.22
45888;BME280;31595;51.418;7.572;2023-03-29T04:15:56;100254.69;;;8.30;58.13
45888;BME280;31595;51.418;7.572;2023-03-29T04:18:23;100245.84;;;8.28;58.66
45888;BME280;31595;51.418;7.572;2023-03-29T04:20:51;100253.47;;;8.36;59.38
45888;BME280;31595;51.418;7.572;2023-03-29T04:23:18;100249.56;;;8.37;59.51
45888;BME280;31595;51.418;7.572;2023-03-29T04:25:47;100246.50;;;8.39;59.79
45888;BME280;31595;51.418;7.572;2023-03-29T04:28:14;100253.41;;;8.41;59.62
45888;BME280;31595;51.418;7.572;2023-03-29T04:30:41;100243.41;;;8.40;60.64
45888;BME280;31595;51.418;7.572;2023-03-29T04:33:09;100252.47;;;8.46;60.31
45888;BME280;31595;51.418;7.572;2023-03-29T04:35:36;100246.75;;;8.42;59.23
45888;BME280;31595;51.418;7.572;2023-03-29T04:38:04;100247.25;;;8.44;60.53
45888;BME280;31595;51.418;7.572;2023-03-29T04:40:34;100242.31;;;8.41;60.22
45888;BME280;31595;51.418;7.572;2023-03-29T04:43:03;100238.94;;;8.44;60.29
45888;BME280;31595;51.418;7.572;2023-03-29T04:45:31;100246.50;;;8.39;61.12
45888;BME280;31595;51.418;7.572;2023-03-29T04:47:58;100237.03;;;8.40;62.08
45888;BME280;31595;51.418;7.572;2023-03-29T04:50:25;100232.47;;;8.49;62.14
45888;BME280;31595;51.418;7.572;2023-03-29T04:52:53;100234.41;;;8.48;62.04
45888;BME280;31595;51.418;7.572;2023-03-29T04:55:20;100234.41;;;8.48;61.32
45888;BME280;31595;51.418;7.572;2023-03-29T04:57:47;100227.22;;;8.47;61.19
45888;BME280;31595;51.418;7.572;2023-03-29T05:00:17;100226.09;;;8.48;61.55
45888;BME280;31595;51.418;7.572;2023-03-29T05:02:45;100224.44;;;8.47;61.90
45888;BME280;31595;51.418;7.572;2023-03-29T05:05:13;100217.88;;;8.57;61.53
45888;BME280;31595;51.418;7.572;2023-03-29T05:07:40;100219.91;;;8.51;60.47
45888;BME280;31595;51.418;7.572;2023-03-29T05:10:08;100222.06;;;8.54;62.06
45888;BME280;31595;51.418;7.572;2023-03-29T05:12:35;100211.81;;;8.55;61.44
45888;BME280;31595;51.418;7.572;2023-03-29T05:15:03;100210.66;;;8.56;61.34
45888;BME280;31595;51.418;7.572;2023-03-29T05:17:31;100208.09;;;8.60;59.85
45888;BME280;31595;51.418;7.572;2023-03-29T05:19:59;100206.03;;;8.51;61.50
45888;BME280;31595;51.418;7.572;2023-03-29T05:22:32;100213.25;;;8.52;60.91
45888;BME280;31595;51.418;7.572;2023-03-29T05:24:59;100222.38;;;8.53;61.62
45888;BME280;31595;51.418;7.572;2023-03-29T05:27:26;100215.69;;;8.54;61.36
45888;BME280;31595;51.418;7.572;2023-03-29T05:29:54;100220.00;;;8.60;60.27
45888;BME280;31595;51.418;7.572;2023-03-29T05:32:21;100217.25;;;8.74;60.14
45888;BME280;31595;51.418;7.572;2023-03-29T05:34:50;100225.06;;;8.72;61.24
45888;BME280;31595;51.418;7.572;2023-03-29T05:37:17;100228.38;;;8.74;59.60
45888;BME280;31595;51.418;7.572;2023-03-29T05:39:45;100220.03;;;8.74;60.47
45888;BME280;31595;51.418;7.572;2023-03-29T05:42:13;100227.63;;;8.68;59.92
45888;BME280;31595;51.418;7.572;2023-03-29T05:44:41;100226.31;;;8.66;61.01
45888;BME280;31595;51.418;7.572;2023-03-29T05:47:08;100221.16;;;8.73;61.23
45888;BME280;31595;51.418;7.572;2023-03-29T05:49:35;100230.94;;;8.70;60.16
45888;BME280;31595;51.418;7.572;2023-03-29T05:52:04;100236.69;;;8.74;60.87
45888;BME280;31595;51.418;7.572;2023-03-29T05:54:31;100237.41;;;8.80;61.89
45888;BME280;31595;51.418;7.572;2023-03-29T05:56:58;100234.84;;;8.83;63.05
45888;BME280;31595;51.418;7.572;2023-03-29T05:59:26;100239.16;;;8.76;63.57
45888;BME280;31595;51.418;7.572;2023-03-29T06:01:54;100235.03;;;8.73;63.23
45888;BME280;31595;51.418;7.572;2023-03-29T06:04:22;100238.53;;;8.79;63.89
45888;BME280;31595;51.418;7.572;2023-03-29T06:06:49;100238.72;;;8.54;65.21
45888;BME280;31595;51.418;7.572;2023-03-29T06:09:19;100237.19;;;8.62;63.98
45888;BME280;31595;51.418;7.572;2023-03-29T06:11:46;100236.69;;;8.74;63.90
45888;BME280;31595;51.418;7.572;2023-03-29T06:14:13;100239.16;;;8.76;64.03
45888;BME280;31595;51.418;7.572;2023-03-29T06:16:40;100233.19;;;8.82;65.07
45888;BME280;31595;51.418;7.572;2023-03-29T06:19:08;100219.19;;;8.87;64.72
45888;BME280;31595;51.418;7.572;2023-03-29T06:21:35;100222.59;;;8.84;66.06
45888;BME280;31595;51.418;7.572;2023-03-29T06:24:03;100211.00;;;8.82;65.07
45888;BME280;31595;51.418;7.572;2023-03-29T06:26:33;100212.00;;;9.00;65.01
45888;BME280;31595;51.418;7.572;2023-03-29T06:29:00;100213.44;;;9.11;64.84
45888;BME280;31595;51.418;7.572;2023-03-29T06:31:29;100218.84;;;9.30;65.49
45888;BME280;31595;51.418;7.572;2023-03-29T06:33:56;100215.34;;;9.39;64.73
45888;BME280;31595;51.418;7.572;2023-03-29T06:36:24;100215.19;;;9.44;65.06
45888;BME280;31595;51.418;7.572;2023-03-29T06:38:51;100220.41;;;9.59;63.92
45888;BME280;31595;51.418;7.572;2023-03-29T06:41:19;100218.41;;;9.73;63.34
45888;BME280;31595;51.418;7.572;2023-03-29T06:43:47;100221.94;;;9.88;63.38
45888;BME280;31595;51.418;7.572;2023-03-29T06:46:14;100213.75;;;9.83;63.10
45888;BME280;31595;51.418;7.572;2023-03-29T06:48:42;100211.88;;;10.01;62.04
45888;BME280;31595;51.418;7.572;2023-03-29T06:51:10;100207.53;;;10.08;61.87
45888;BME280;31595;51.418;7.572;2023-03-29T06:53:38;100210.63;;;10.07;61.80
45888;BME280;31595;51.418;7.572;2023-03-29T06:56:05;100212.06;;;10.27;62.38
45888;BME280;31595;51.418;7.572;2023-03-29T06:58:33;100212.84;;;10.19;61.19
45888;BME280;31595;51.418;7.572;2023-03-29T07:01:03;100213.16;;;10.40;61.78
45888;BME280;31595;51.418;7.572;2023-03-29T07:03:30;100227.88;;;10.40;60.80
45888;BME280;31595;51.418;7.572;2023-03-29T07:06:00;100225.94;;;10.49;60.12
45888;BME280;31595;51.418;7.572;2023-03-29T07:08:29;100230.63;;;10.63;60.92
45888;BME280;31595;51.418;7.572;2023-03-29T07:10:57;100225.91;;;10.72;60.52
45888;BME280;31595;51.418;7.572;2023-03-29T07:13:24;100224.63;;;10.78;60.42
45888;BME280;31595;51.418;7.572;2023-03-29T07:15:52;100223.88;;;11.04;59.43
45888;BME280;31595;51.418;7.572;2023-03-29T07:18:21;100227.44;;;10.95;59.25
45888;BME280;31595;51.418;7.572;2023-03-29T07:20:48;100217.47;;;10.94;58.34
45888;BME280;31595;51.418;7.572;2023-03-29T07:23:17;100233.69;;;10.92;58.76
45888;BME280;31595;51.418;7.572;2023-03-29T07:25:44;100220.66;;;10.79;59.12
45888;BME280;31595;51.418;7.572;2023-03-29T07:28:12;100218.72;;;10.80;59.00
45888;BME280;31595;51.418;7.572;2023-03-29T07:30:39;100219.31;;;10.68;59.40
45888;BME280;31595;51.418;7.572;2023-03-29T07:33:06;100219.38;;;10.85;59.09
45888;BME280;31595;51.418;7.572;2023-03-29T07:35:35;100225.47;;;10.87;58.64
45888;BME280;31595;51.418;7.572;2023-03-29T07:38:03;100224.03;;;10.99;57.99
45888;BME280;31595;51.418;7.572;2023-03-29T07:40:30;100212.53;;;10.91;58.36
45888;BME280;31595;51.418;7.572;2023-03-29T07:42:58;100207.47;;;11.02;57.70
45888;BME280;31595;51.418;7.572;2023-03-29T07:45:26;100212.91;;;11.16;57.16
45888;BME280;31595;51.418;7.572;2023-03-29T07:47:56;100223.75;;;11.17;56.70
45888;BME280;31595;51.418;7.572;2023-03-29T07:50:24;100221.81;;;11.35;56.46
45888;BME280;31595;51.418;7.572;2023-03-29T07:52:53;100224.41;;;11.23;56.83
45888;BME280;31595;51.418;7.572;2023-03-29T07:55:21;100228.69;;;11.29;56.80
45888;BME280;31595;51.418;7.572;2023-03-29T07:57:49;100224.75;;;11.30;56.71
45888;BME280;31595;51.418;7.572;2023-03-29T08:00:17;100230.34;;;11.39;56.07
45888;BME280;31595;51.418;7.572;2023-03-29T08:02:46;100212.94;;;11.33;56.30
45888;BME280;31595;51.418;7.572;2023-03-29T08:05:15;100219.06;;;11.53;55.39
45888;BME280;31595;51.418;7.572;2023-03-29T08:07:44;100212.97;;;11.51;55.72
45888;BME280;31595;51.418;7.572;2023-03-29T08:10:14;100220.00;;;11.40;56.09
45888;BME280;31595;51.418;7.572;2023-03-29T08:12:43;100220.50;;;11.42;55.87
45888;BME280;31595;51.418;7.572;2023-03-29T08:15:11;100230.22;;;11.53;56.06
45888;BME280;31595;51.418;7.572;2023-03-29T08:17:39;100234.00;;;11.57;55.66
45888;BME280;31595;51.418;7.572;2023-03-29T08:20:08;100232.34;;;11.56;55.46
45888;BME280;31595;51.418;7.572;2023-03-29T08:22:36;100219.19;;;11.48;55.62
45888;BME280;31595;51.418;7.572;2023-03-29T08:25:05;100219.88;;;11.62;55.38
45888;BME280;31595;51.418;7.572;2023-03-29T08:27:35;100211.19;;;11.90;54.60
45888;BME280;31595;51.418;7.572;2023-03-29T08:30:04;100200.75;;;12.34;53.42
45888;BME280;31595;51.418;7.572;2023-03-29T08:32:31;100202.09;;;12.75;52.38
45888;BME280;31595;51.418;7.572;2023-03-29T08:34:58;100187.66;;;13.03;51.57
45888;BME280;31595;51.418;7.572;2023-03-29T08:37:28;100183.25;;;13.44;50.87
45888;BME280;31595;51.418;7.572;2023-03-29T08:39:56;100193.78;;;13.68;50.73
45888;BME280;31595;51.418;7.572;2023-03-29T08:42:40;100186.03;;;13.86;49.90
45888;BME280;31595;51.418;7.572;2023-03-29T08:45:21;100195.78;;;14.46;47.99
45888;BME280;31595;51.418;7.572;2023-03-29T08:47:57;100194.81;;;14.30;47.99
45888;BME280;31595;51.418;7.572;2023-03-29T08:50:33;100191.88;;;14.14;48.01
45888;BME280;31595;51.418;7.572;2023-03-29T08:53:04;100188.88;;;14.31;47.09
45888;BME280;31595;51.418;7.572;2023-03-29T08:55:37;100198.13;;;14.44;47.52
45888;BME280;31595;51.418;7.572;2023-03-29T08:58:12;100201.53;;;14.50;47.73
45888;BME280;31595;51.418;7.572;2023-03-29T09:00:43;100200.44;;;14.30;48.34
45888;BME280;31595;51.418;7.572;2023-03-29T09:03:18;100213.38;;;13.89;48.66
45888;BME280;31595;51.418;7.572;2023-03-29T09:05:48;100196.72;;;13.92;48.77
45888;BME280;31595;51.418;7.572;2023-03-29T09:08:18;100202.59;;;13.78;49.87
45888;BME280;31595;51.418;7.572;2023-03-29T09:10:59;100209.41;;;13.48;50.84
45888;BME280;31595;51.418;7.572;2023-03-29T09:13:34;100201.41;;;13.08;51.34
45888;BME280;31595;51.418;7.572;2023-03-29T09:16:07;100210.97;;;13.07;51.86
45888;BME280;31595;51.418;7.572;2023-03-29T09:18:43;100209.16;;;13.11;52.28
45888;BME280;31595;51.418;7.572;2023-03-29T09:21:18;100208.41;;;12.93;52.69
45888;BME280;31595;51.418;7.572;2023-03-29T09:23:58;100206.72;;;13.00;52.76
45888;BME280;31595;51.418;7.572;2023-03-29T09:26:34;100203.06;;;13.09;53.17
45888;BME280;31595;51.418;7.572;2023-03-29T09:29:20;100217.88;;;13.09;52.87
45888;BME280;31595;51.418;7.572;2023-03-29T09:31:53;100211.72;;;13.16;53.48
45888;BME280;31595;51.418;7.572;2023-03-29T09:34:23;100221.63;;;13.13;53.78
45888;BME280;31595;51.418;7.572;2023-03-29T09:36:58;100213.09;;;13.39;52.71
45888;BME280;31595;51.418;7.572;2023-03-29T09:39:28;100213.38;;;13.47;53.14
45888;BME280;31595;51.418;7.572;2023-03-29T09:41:59;100208.44;;;13.44;53.90
45888;BME280;31595;51.418;7.572;2023-03-29T09:44:34;100212.03;;;13.53;53.68
45888;BME280;31595;51.418;7.572;2023-03-29T09:47:07;100209.88;;;13.50;53.41
45888;BME280;31595;51.418;7.572;2023-03-29T09:49:38;100212.56;;;13.67;52.98
45888;BME280;31595;51.418;7.572;2023-03-29T09:52:11;100204.19;;;14.00;53.27
45888;BME280;31595;51.418;7.572;2023-03-29T09:54:39;100201.38;;;14.21;51.90
45888;BME280;31595;51.418;7.572;2023-03-29T09:57:09;100212.03;;;14.07;52.07
45888;BME280;31595;51.418;7.572;2023-03-29T09:59:38;100204.25;;;13.92;52.59
45888;BME280;31595;51.418;7.572;2023-03-29T10:02:07;100196.81;;;13.96;53.01
45888;BME280;31595;51.418;7.572;2023-03-29T10:04:35;100192.88;;;13.97;52.52
45888;BME280;31595;51.418;7.572;2023-03-29T10:07:04;100205.84;;;14.01;52.50
45888;BME280;31595;51.418;7.572;2023-03-29T10:09:32;100188.81;;;14.52;52.04
45888;BME280;31595;51.418;7.572;2023-03-29T10:12:03;100183.13;;;15.22;49.91
45888;BME280;31595;51.418;7.572;2023-03-29T10:14:34;100187.63;;;15.52;49.48
45888;BME280;31595;51.418;7.572;2023-03-29T10:17:10;100190.66;;;15.47;49.02
45888;BME280;31595;51.418;7.572;2023-03-29T10:19:46;100188.13;;;15.29;49.05
45888;BME280;31595;51.418;7.572;2023-03-29T10:22:17;100183.81;;;15.19;49.97
45888;BME280;31595;51.418;7.572;2023-03-29T10:24:48;100175.28;;;15.16;49.94
45888;BME280;31595;51.418;7.572;2023-03-29T10:27:19;100188.97;;;15.17;49.18
45888;BME280;31595;51.418;7.572;2023-03-29T10:29:48;100181.59;;;15.25;49.34
45888;BME280;31595;51.418;7.572;2023-03-29T10:32:25;100175.72;;;15.30;49.85
45888;BME280;31595;51.418;7.572;2023-03-29T10:34:58;100170.09;;;15.30;49.47
45888;BME280;31595;51.418;7.572;2023-03-29T10:37:30;100176.88;;;15.41;49.53
45888;BME280;31595;51.418;7.572;2023-03-29T10:39:57;100174.09;;;15.41;49.24
45888;BME280;31595;51.418;7.572;2023-03-29T10:42:25;100168.34;;;15.78;48.86
45888;BME280;31595;51.418;7.572;2023-03-29T10:44:53;100164.88;;;15.97;47.69
45888;BME280;31595;51.418;7.572;2023-03-29T10:47:22;100174.97;;;16.14;48.29
45888;BME280;31595;51.418;7.572;2023-03-29T10:49:52;100178.16;;;16.13;48.25
45888;BME280;31595;51.418;7.572;2023-03-29T10:52:19;100180.47;;;16.39;47.40
45888;BME280;31595;51.418;7.572;2023-03-29T10:54:49;100182.00;;;16.36;47.60
45888;BME280;31595;51.418;7.572;2023-03-29T10:57:24;100174.84;;;16.39;47.40
45888;BME280;31595;51.418;7.572;2023-03-29T11:00:00;100172.03;;;16.39;47.68
45888;BME280;31595;51.418;7.572;2023-03-29T11:03:03;100172.22;;;16.94;46.45
45888;BME280;31595;51.418;7.572;2023-03-29T11:05:37;100154.13;;;17.46;45.93
45888;BME280;31595;51.418;7.572;2023-03-29T11:08:21;100164.44;;;17.77;44.70
45888;BME280;31595;51.418;7.572;2023-03-29T11:10:59;100164.16;;;18.02;44.14
45888;BME280;31595;51.418;7.572;2023-03-29T11:13:32;100146.34;;;17.78;44.22
45888;BME280;31595;51.418;7.572;2023-03-29T11:16:13;100138.22;;;18.58;42.21
45888;BME280;31595;51.418;7.572;2023-03-29T11:19:07;100139.63;;;18.72;42.26
45888;BME280;31595;51.418;7.572;2023-03-29T11:21:44;100126.66;;;18.90;43.07
45888;BME280;31595;51.418;7.572;2023-03-29T11:24:40;100132.84;;;18.99;41.43
45888;BME280;31595;51.418;7.572;2023-03-29T11:27:18;100123.44;;;18.69;42.42
45888;BME280;31595;51.418;7.572;2023-03-29T11:29:58;100126.34;;;19.25;41.11
45888;BME280;31595;51.418;7.572;2023-03-29T11:32:34;100129.31;;;18.79;42.59
45888;BME280;31595;51.418;7.572;2023-03-29T11:35:17;100123.00;;;18.90;43.09
45888;BME280;31595;51.418;7.572;2023-03-29T11:37:51;100125.28;;;18.34;45.16
45888;BME280;31595;51.418;7.572;2023-03-29T11:40:33;100123.66;;;18.79;44.26
45888;BME280;31595;51.418;7.572;2023-03-29T11:43:10;100124.63;;;19.47;41.83
45888;BME280;31595;51.418;7.572;2023-03-29T11:45:42;100120.09;;;21.62;38.36
45888;BME280;31595;51.418;7.572;2023-03-29T11:48:16;100111.38;;;22.97;34.95
45888;BME280;31595;51.418;7.572;2023-03-29T11:50:50;100113.03;;;22.47;35.63
45888;BME280;31595;51.418;7.572;2023-03-29T11:53:23;100117.06;;;23.00;34.78
45888;BME280;31595;51.418;7.572;2023-03-29T11:55:53;100119.91;;;22.75;35.10
45888;BME280;31595;51.418;7.572;2023-03-29T11:58:26;100120.53;;;21.75;35.60
45888;BME280;31595;51.418;7.572;2023-03-29T12:01:00;100107.34;;;22.26;34.96
45888;BME280;31595;51.418;7.572;2023-03-29T12:03:35;100108.81;;;23.53;33.58
45888;BME280;31595;51.418;7.572;2023-03-29T12:06:11;100094.34;;;28.08;27.82
45888;BME280;31595;51.418;7.572;2023-03-29T12:08:45;100097.88;;;29.99;24.96
45888;BME280;31595;51.418;7.572;2023-03-29T12:11:18;100094.81;;;29.64;25.56
45888;BME280;31595;51.418;7.572;2023-03-29T12:13:53;100089.00;;;26.87;28.41
45888;BME280;31595;51.418;7.572;2023-03-29T12:16:26;100092.09;;;25.95;29.03
45888;BME280;31595;51.418;7.572;2023-03-29T12:18:57;100085.22;;;25.88;29.74
45888;BME280;31595;51.418;7.572;2023-03-29T12:21:28;100084.25;;;24.54;32.01
45888;BME280;31595;51.418;7.572;2023-03-29T12:23:56;100077.28;;;22.97;33.94
45888;BME280;31595;51.418;7.572;2023-03-29T12:26:40;100079.31;;;24.06;32.93
45888;BME280;31595;51.418;7.572;2023-03-29T12:29:25;100067.22;;;24.92;30.84
45888;BME280;31595;51.418;7.572;2023-03-29T12:32:12;100072.53;;;24.45;31.49
45888;BME280;31595;51.418;7.572;2023-03-29T12:34:52;100068.59;;;24.80;31.82
45888;BME280;31595;51.418;7.572;2023-03-29T12:37:31;100063.22;;;27.74;27.97
45888;BME280;31595;51.418;7.572;2023-03-29T12:40:10;100072.97;;;28.29;26.88
45888;BME280;31595;51.418;7.572;2023-03-29T12:42:46;100071.09;;;27.30;28.09
45888;BME280;31595;51.418;7.572;2023-03-29T12:45:17;100070.31;;;25.08;30.00
45888;BME280;31595;51.418;7.572;2023-03-29T12:47:48;100079.25;;;23.36;33.00
45888;BME280;31595;51.418;7.572;2023-03-29T12:50:23;100069.16;;;21.84;36.37
45888;BME280;31595;51.418;7.572;2023-03-29T12:53:02;100074.44;;;21.05;37.45
45888;BME280;31595;51.418;7.572;2023-03-29T12:55:33;100067.00;;;20.79;38.47
45888;BME280;31595;51.418;7.572;2023-03-29T12:58:22;100061.88;;;20.47;38.79
45888;BME280;31595;51.418;7.572;2023-03-29T13:00:56;100048.97;;;20.01;39.93
45888;BME280;31595;51.418;7.572;2023-03-29T13:03:40;100040.13;;;19.69;41.33
45888;BME280;31595;51.418;7.572;2023-03-29T13:06:09;100042.25;;;19.76;40.27
45888;BME280;31595;51.418;7.572;2023-03-29T13:08:40;100044.25;;;19.41;41.61
45888;BME280;31595;51.418;7.572;2023-03-29T13:11:11;100059.56;;;18.80;42.86
45888;BME280;31595;51.418;7.572;2023-03-29T13:13:50;100058.66;;;18.49;44.34
45888;BME280;31595;51.418;7.572;2023-03-29T13:16:19;100052.97;;;18.22;44.13